createdAt,value
2019-05-17T00:01:57.778Z,43.52
2019-05-17T00:04:26.836Z,42.33
2019-05-17T00:06:53.012Z,45.88
2019-05-17T00:09:19.766Z,38.88
2019-05-17T00:11:47.311Z,48.08
2019-05-17T00:14:16.734Z,49.45
2019-05-17T00:16:43.507Z,43.60
2019-05-17T00:19:10.068Z,50.85
2019-05-17T00:21:37.053Z,45.03
2019-05-17T00:24:03.855Z,50.00
2019-05-17T00:26:30.351Z,51.42
2019-05-17T00:28:56.912Z,49.27
2019-05-17T00:31:23.396Z,46.95
2019-05-17T00:33:49.817Z,43.20
2019-05-17T00:36:17.791Z,44.13
2019-05-17T00:38:50.674Z,41.80
2019-05-17T00:41:12.992Z,49.20
2019-05-17T00:43:39.395Z,46.73
2019-05-17T00:46:06.715Z,49.25
2019-05-17T00:48:33.390Z,52.88
2019-05-17T00:51:01.983Z,42.62
2019-05-17T00:53:28.206Z,47.70
2019-05-17T00:55:55.258Z,39.78
2019-05-17T00:58:23.145Z,42.33
2019-05-17T01:00:49.733Z,43.87
2019-05-17T01:03:16.331Z,41.45
2019-05-17T01:05:43.219Z,41.60
2019-05-17T01:08:09.613Z,40.35
2019-05-17T01:10:36.838Z,42.15
2019-05-17T01:13:03.735Z,47.38
2019-05-17T01:15:30.125Z,42.98
2019-05-17T01:17:56.509Z,39.33
2019-05-17T01:20:23.016Z,41.85
2019-05-17T01:22:49.559Z,46.90
2019-05-17T01:25:17.179Z,44.73
2019-05-17T01:27:43.982Z,44.67
2019-05-17T01:30:12.728Z,44.48
2019-05-17T01:32:40.090Z,40.28
2019-05-17T01:35:07.210Z,41.20
2019-05-17T01:37:33.965Z,36.95
2019-05-17T01:40:00.373Z,40.05
2019-05-17T01:42:27.091Z,37.42
2019-05-17T01:44:53.558Z,38.00
2019-05-17T01:47:19.994Z,39.90
2019-05-17T01:49:46.989Z,39.30
2019-05-17T01:52:13.845Z,40.58
2019-05-17T01:54:40.370Z,42.20
2019-05-17T01:57:07.301Z,42.25
2019-05-17T01:59:34.099Z,39.45
2019-05-17T02:02:02.410Z,42.75
2019-05-17T02:04:29.810Z,41.08
2019-05-17T02:06:57.392Z,44.10
2019-05-17T02:09:34.882Z,39.10
2019-05-17T02:11:52.480Z,44.08
2019-05-17T02:14:18.849Z,44.30
2019-05-17T02:16:46.845Z,38.75
2019-05-17T02:19:13.744Z,42.67
2019-05-17T02:21:40.320Z,39.05
2019-05-17T02:24:07.997Z,41.00
2019-05-17T02:26:37.277Z,42.00
2019-05-17T02:29:03.136Z,41.20
2019-05-17T02:31:32.764Z,41.28
2019-05-17T02:33:58.556Z,39.67
2019-05-17T02:36:25.078Z,36.77
2019-05-17T02:38:53.205Z,37.58
2019-05-17T02:41:22.494Z,42.15
2019-05-17T02:43:48.085Z,41.45
2019-05-17T02:46:14.585Z,40.50
2019-05-17T02:48:42.764Z,45.03
2019-05-17T02:51:13.117Z,39.80
2019-05-17T02:53:38.989Z,39.90
2019-05-17T02:56:05.575Z,40.88
2019-05-17T02:58:33.058Z,38.48
2019-05-17T03:01:03.282Z,42.27
2019-05-17T03:03:28.262Z,38.20
2019-05-17T03:05:54.856Z,40.98
2019-05-17T03:08:23.528Z,44.63
2019-05-17T03:10:53.149Z,42.98
2019-05-17T03:13:18.291Z,37.65
2019-05-17T03:15:45.745Z,39.25
2019-05-17T03:18:13.426Z,39.88
2019-05-17T03:20:42.919Z,39.50
2019-05-17T03:23:08.566Z,45.75
2019-05-17T03:25:35.150Z,39.40
2019-05-17T03:28:03.125Z,37.60
2019-05-17T03:30:35.547Z,37.98
2019-05-17T03:32:58.674Z,37.35
2019-05-17T03:35:26.966Z,39.55
2019-05-17T03:37:53.802Z,43.28
2019-05-17T03:40:47.358Z,37.78
2019-05-17T03:42:48.837Z,33.73
2019-05-17T03:45:15.437Z,39.75
2019-05-17T03:47:44.461Z,35.92
2019-05-17T03:50:13.390Z,34.95
2019-05-17T03:52:39.799Z,39.63
2019-05-17T03:55:06.532Z,32.38
2019-05-17T03:57:33.132Z,33.63
2019-05-17T04:00:03.516Z,38.73
2019-05-17T04:02:28.269Z,38.78
2019-05-17T04:04:54.915Z,36.65
2019-05-17T04:07:23.612Z,37.58
2019-05-17T04:09:53.201Z,37.88
2019-05-17T04:12:18.675Z,35.98
2019-05-17T04:14:45.087Z,37.90
2019-05-17T04:17:13.156Z,35.68
2019-05-17T04:19:42.594Z,31.20
2019-05-17T04:22:08.423Z,34.08
2019-05-17T04:24:34.914Z,31.80
2019-05-17T04:27:03.713Z,34.10
2019-05-17T04:29:32.869Z,33.02
2019-05-17T04:31:57.970Z,32.48
2019-05-17T04:34:24.543Z,35.20
2019-05-17T04:36:52.265Z,36.75
2019-05-17T04:39:22.396Z,33.92
2019-05-17T04:41:51.106Z,34.05
2019-05-17T04:44:16.164Z,35.35
2019-05-17T04:46:43.315Z,36.42
2019-05-17T04:49:13.496Z,38.95
2019-05-17T04:51:38.375Z,43.17
2019-05-17T04:54:05.062Z,42.50
2019-05-17T04:56:33.358Z,42.40
2019-05-17T04:59:03.343Z,38.67
2019-05-17T05:01:28.732Z,35.90
2019-05-17T05:03:55.223Z,34.03
2019-05-17T05:06:23.380Z,31.65
2019-05-17T05:08:52.711Z,28.10
2019-05-17T05:11:18.415Z,28.67
2019-05-17T05:13:44.997Z,25.90
2019-05-17T05:16:13.423Z,24.40
2019-05-17T05:18:42.104Z,23.22
2019-05-17T05:21:08.519Z,24.23
2019-05-17T05:23:34.917Z,23.27
2019-05-17T05:26:03.070Z,22.40
2019-05-17T05:28:31.712Z,22.70
2019-05-17T05:30:58.241Z,24.60
2019-05-17T05:33:24.725Z,22.62
2019-05-17T05:35:51.687Z,21.25
2019-05-17T05:38:18.337Z,21.93
2019-05-17T05:40:44.760Z,22.00
2019-05-17T05:43:11.982Z,21.17
2019-05-17T05:45:38.851Z,21.07
2019-05-17T05:48:05.347Z,20.80
2019-05-17T05:50:32.386Z,20.43
2019-05-17T05:52:58.994Z,21.93
2019-05-17T05:55:25.405Z,20.88
2019-05-17T05:57:52.284Z,22.40
2019-05-17T06:00:19.041Z,24.23
2019-05-17T06:02:45.555Z,20.60
2019-05-17T06:05:16.396Z,20.95
2019-05-17T06:07:41.797Z,22.15
2019-05-17T06:12:51.762Z,22.82
2019-05-17T06:15:18.595Z,22.27
2019-05-17T06:17:45.124Z,20.88
2019-05-17T06:20:12.815Z,22.90
2019-05-17T06:22:39.316Z,19.35
2019-05-17T06:25:05.923Z,20.15
2019-05-17T06:27:32.443Z,19.52
2019-05-17T06:30:01.354Z,19.00
2019-05-17T06:32:27.419Z,19.95
2019-05-17T06:34:53.944Z,18.50
2019-05-17T06:37:22.383Z,18.32
2019-05-17T06:40:09.600Z,16.35
2019-05-17T06:42:41.166Z,17.92
2019-05-17T06:45:05.644Z,16.87
2019-05-17T06:47:32.842Z,16.65
2019-05-17T06:49:59.533Z,16.07
2019-05-17T06:52:25.937Z,14.95
2019-05-17T06:54:52.580Z,15.25
2019-05-17T06:57:19.058Z,13.90
2019-05-17T06:59:45.446Z,14.38
2019-05-17T07:02:11.868Z,14.47
2019-05-17T07:04:39.515Z,13.45
2019-05-17T07:07:25.094Z,14.00
2019-05-17T07:09:51.474Z,16.25
2019-05-17T07:12:20.230Z,13.18
2019-05-17T07:14:46.319Z,14.10
2019-05-17T07:17:12.746Z,12.45
2019-05-17T07:19:40.062Z,12.43
2019-05-17T07:22:06.718Z,11.63
2019-05-17T07:24:33.145Z,12.07
2019-05-17T07:26:59.546Z,12.58
2019-05-17T07:29:26.050Z,12.10
2019-05-17T07:31:52.470Z,11.43
2019-05-17T07:34:19.949Z,11.43
2019-05-17T07:36:46.580Z,11.60
2019-05-17T07:39:13.004Z,10.58
2019-05-17T07:41:40.072Z,12.28
2019-05-17T07:44:06.898Z,12.28
2019-05-17T07:46:33.299Z,10.63
2019-05-17T07:49:00.350Z,10.43
2019-05-17T07:51:27.046Z,9.85
2019-05-17T07:53:53.550Z,12.70
2019-05-17T07:56:20.109Z,10.00
2019-05-17T07:58:46.569Z,11.45
2019-05-17T08:01:13.188Z,10.70
2019-05-17T08:03:40.627Z,10.38
2019-05-17T08:06:07.499Z,10.10
2019-05-17T08:08:34.093Z,9.80
2019-05-17T08:11:00.644Z,9.78
2019-05-17T08:13:31.392Z,11.57
2019-05-17T08:15:55.669Z,11.70
2019-05-17T08:18:22.177Z,10.43
2019-05-17T08:20:50.150Z,11.50
2019-05-17T08:23:19.874Z,10.63
2019-05-17T08:25:52.838Z,10.78
2019-05-17T08:28:14.541Z,14.30
2019-05-17T08:30:41.363Z,12.80
2019-05-17T08:33:10.874Z,12.65
2019-05-17T08:35:36.835Z,12.03
2019-05-17T08:38:03.332Z,11.40
2019-05-17T08:40:30.571Z,12.15
2019-05-17T08:42:57.213Z,12.07
2019-05-17T08:45:23.627Z,13.18
2019-05-17T08:47:50.172Z,11.43
2019-05-17T08:50:16.951Z,11.43
2019-05-17T08:52:43.633Z,15.23
2019-05-17T08:55:10.393Z,10.72
2019-05-17T08:57:39.652Z,10.85
2019-05-17T09:00:06.505Z,11.10
2019-05-17T09:02:33.001Z,9.78
2019-05-17T09:05:00.487Z,9.33
2019-05-17T09:07:29.390Z,11.18
2019-05-17T09:09:55.455Z,10.70
2019-05-17T09:12:21.871Z,10.08
2019-05-17T09:14:49.597Z,8.85
2019-05-17T09:17:16.435Z,9.68
2019-05-17T09:19:42.860Z,8.83
2019-05-17T09:22:10.452Z,9.15
2019-05-17T09:24:39.514Z,11.03
2019-05-17T09:27:07.381Z,8.13
2019-05-17T09:29:33.887Z,8.00
2019-05-17T09:32:00.308Z,8.50
2019-05-17T09:34:26.715Z,7.85
2019-05-17T09:36:53.185Z,7.80
2019-05-17T09:39:20.055Z,7.50
2019-05-17T09:41:46.709Z,7.83
2019-05-17T09:44:16.455Z,8.20
2019-05-17T09:46:41.658Z,10.05
2019-05-17T09:49:10.404Z,8.05
2019-05-17T09:51:36.799Z,7.80
2019-05-17T09:54:03.376Z,8.45
2019-05-17T09:56:30.830Z,6.20
2019-05-17T09:58:57.451Z,7.78
2019-05-17T10:01:24.042Z,6.53
2019-05-17T10:03:50.814Z,6.92
2019-05-17T10:06:19.879Z,5.62
2019-05-17T10:08:45.778Z,6.25
2019-05-17T10:11:12.410Z,11.78
2019-05-17T10:13:38.988Z,5.47
2019-05-17T10:16:05.531Z,6.58
2019-05-17T10:18:31.913Z,5.58
2019-05-17T10:20:59.812Z,7.62
2019-05-17T10:23:26.746Z,8.00
2019-05-17T10:25:53.139Z,5.30
2019-05-17T10:28:20.501Z,4.70
2019-05-17T10:30:51.932Z,16.10
2019-05-17T10:33:16.789Z,4.83
2019-05-17T10:35:43.212Z,4.60
2019-05-17T10:38:10.701Z,4.50
2019-05-17T10:40:37.630Z,4.58
2019-05-17T10:43:04.174Z,4.67
2019-05-17T10:45:30.770Z,5.03
2019-05-17T10:47:57.225Z,4.72
2019-05-17T10:50:23.645Z,3.90
2019-05-17T10:52:50.072Z,5.08
2019-05-17T10:55:16.741Z,4.97
2019-05-17T10:57:43.175Z,4.22
2019-05-17T11:00:10.332Z,3.87
2019-05-17T11:02:37.102Z,4.53
2019-05-17T11:05:05.526Z,4.97
2019-05-17T11:07:31.940Z,5.35
2019-05-17T11:10:00.314Z,4.33
2019-05-17T11:12:26.799Z,4.03
2019-05-17T11:15:09.661Z,5.50
2019-05-17T11:17:21.518Z,7.90
2019-05-17T11:19:48.025Z,4.53
2019-05-17T11:22:14.982Z,7.67
2019-05-17T11:24:41.768Z,7.67
2019-05-17T11:27:08.242Z,4.75
2019-05-17T11:29:34.669Z,4.05
2019-05-17T11:32:01.079Z,7.25
2019-05-17T11:34:27.693Z,4.55
2019-05-17T11:36:54.199Z,7.35
2019-05-17T11:39:20.859Z,5.00
2019-05-17T11:41:47.230Z,6.08
2019-05-17T11:44:14.740Z,2.83
2019-05-17T11:46:41.126Z,3.35
2019-05-17T11:49:07.543Z,3.30
2019-05-17T11:51:34.167Z,2.85
2019-05-17T11:54:00.607Z,3.75
2019-05-17T11:56:27.187Z,5.60
2019-05-17T11:58:53.679Z,4.87
2019-05-17T12:01:20.122Z,4.10
2019-05-17T12:03:46.544Z,4.62
2019-05-17T12:06:13.075Z,3.85
2019-05-17T12:08:39.459Z,4.08
2019-05-17T12:11:05.953Z,3.95
2019-05-17T12:13:32.343Z,4.08
2019-05-17T12:15:59.233Z,5.00
2019-05-17T12:18:25.906Z,4.00
2019-05-17T12:20:52.298Z,4.40
2019-05-17T12:23:18.679Z,3.62
2019-05-17T12:25:45.305Z,4.42
2019-05-17T12:28:12.897Z,3.58
2019-05-17T12:30:39.291Z,4.15
2019-05-17T12:33:06.047Z,4.42
2019-05-17T12:35:32.517Z,6.17
2019-05-17T12:37:58.944Z,4.05
2019-05-17T12:40:25.552Z,4.22
2019-05-17T12:42:52.052Z,3.05
2019-05-17T12:45:18.584Z,4.65
2019-05-17T12:47:44.977Z,2.40
2019-05-17T12:50:11.787Z,2.52
2019-05-17T12:52:38.239Z,3.27
2019-05-17T12:55:05.708Z,2.85
2019-05-17T12:57:32.224Z,2.40
2019-05-17T12:59:58.917Z,5.70
2019-05-17T13:02:25.331Z,4.22
2019-05-17T13:04:51.705Z,3.80
2019-05-17T13:07:18.110Z,3.55
2019-05-17T13:09:44.508Z,2.75
2019-05-17T13:12:11.999Z,2.50
2019-05-17T13:14:38.401Z,3.42
2019-05-17T13:17:05.101Z,2.72
2019-05-17T13:19:31.585Z,2.40
2019-05-17T13:21:58.627Z,2.60
2019-05-17T13:24:25.049Z,3.52
2019-05-17T13:26:51.581Z,3.47
2019-05-17T13:29:18.146Z,3.22
2019-05-17T13:31:53.529Z,2.05
2019-05-17T13:34:20.208Z,1.95
2019-05-17T13:36:46.619Z,2.10
2019-05-17T13:39:13.134Z,2.08
2019-05-17T13:41:39.642Z,3.42
2019-05-17T13:44:06.121Z,3.60
2019-05-17T13:46:33.623Z,5.50
2019-05-17T13:49:00.758Z,2.37
2019-05-17T13:51:28.367Z,2.85
2019-05-17T13:53:55.012Z,2.12
2019-05-17T13:56:21.552Z,1.75
2019-05-17T13:58:47.949Z,3.60
2019-05-17T14:01:14.311Z,3.87
2019-05-17T14:03:40.785Z,1.67
2019-05-17T14:06:07.170Z,2.40
2019-05-17T14:08:33.674Z,1.90
2019-05-17T14:11:00.083Z,2.52
2019-05-17T14:13:26.633Z,3.30
2019-05-17T14:15:53.288Z,3.40
2019-05-17T14:18:19.900Z,1.42
2019-05-17T14:20:46.408Z,1.67
2019-05-17T14:23:13.105Z,1.52
2019-05-17T14:25:39.633Z,1.57
2019-05-17T14:28:06.148Z,1.30
2019-05-17T14:30:32.671Z,4.28
2019-05-17T14:32:59.281Z,2.60
2019-05-17T14:35:25.869Z,2.83
2019-05-17T14:37:53.388Z,1.67
2019-05-17T14:40:20.022Z,2.50
2019-05-17T14:42:46.416Z,1.60
2019-05-17T14:45:13.404Z,4.00
2019-05-17T14:47:39.925Z,2.70
2019-05-17T14:50:07.771Z,1.75
2019-05-17T14:52:34.313Z,2.00
2019-05-17T14:55:00.786Z,2.40
2019-05-17T14:57:27.200Z,2.58
2019-05-17T14:59:53.699Z,2.45
2019-05-17T15:02:20.139Z,4.08
2019-05-17T15:04:46.634Z,2.05
2019-05-17T15:07:13.015Z,2.95
2019-05-17T15:09:39.646Z,2.17
2019-05-17T15:12:06.212Z,2.77
2019-05-17T15:14:32.626Z,2.60
2019-05-17T15:16:59.093Z,1.75
2019-05-17T15:19:25.612Z,3.27
2019-05-17T15:21:52.023Z,2.35
2019-05-17T15:24:18.564Z,2.77
2019-05-17T15:26:44.974Z,4.35
2019-05-17T15:29:11.522Z,1.60
2019-05-17T15:31:38.101Z,2.25
2019-05-17T15:34:04.629Z,2.62
2019-05-17T15:36:31.021Z,1.82
2019-05-17T15:38:57.677Z,4.03
2019-05-17T15:41:24.190Z,1.57
2019-05-17T15:43:50.741Z,3.67
2019-05-17T15:46:35.820Z,5.42
2019-05-17T15:49:02.321Z,1.87
2019-05-17T15:51:28.924Z,1.98
2019-05-17T15:53:55.618Z,2.27
2019-05-17T15:56:22.195Z,3.20
2019-05-17T15:58:48.714Z,1.70
2019-05-17T16:01:15.380Z,2.85
2019-05-17T16:03:41.781Z,1.80
2019-05-17T16:06:08.304Z,2.27
2019-05-17T16:08:34.716Z,3.62
2019-05-17T16:11:01.231Z,5.10
2019-05-17T16:13:27.631Z,2.25
2019-05-17T16:15:54.052Z,1.32
2019-05-17T16:18:20.442Z,1.95
2019-05-17T16:20:46.866Z,3.25
2019-05-17T16:23:13.391Z,2.55
2019-05-17T16:25:39.880Z,2.10
2019-05-17T16:28:06.481Z,2.50
2019-05-17T16:30:33.022Z,1.80
2019-05-17T16:32:59.714Z,3.77
2019-05-17T16:35:26.117Z,2.77
2019-05-17T16:37:52.552Z,1.50
2019-05-17T16:40:21.828Z,1.67
2019-05-17T16:42:48.274Z,3.05
2019-05-17T16:45:17.442Z,2.52
2019-05-17T16:47:43.865Z,2.00
2019-05-17T16:50:10.859Z,5.72
2019-05-17T16:52:37.376Z,4.37
2019-05-17T16:55:04.700Z,1.90
2019-05-17T16:57:31.204Z,2.55
2019-05-17T16:59:57.827Z,5.65
2019-05-17T17:02:24.295Z,2.35
2019-05-17T17:04:50.940Z,1.77
2019-05-17T17:07:17.456Z,4.00
2019-05-17T17:09:43.842Z,1.67
2019-05-17T17:12:10.363Z,1.85
2019-05-17T17:14:36.744Z,3.50
2019-05-17T17:17:10.315Z,2.17
2019-05-17T17:19:31.837Z,2.67
2019-05-17T17:21:58.593Z,3.25
2019-05-17T17:24:25.073Z,1.62
2019-05-17T17:26:51.542Z,2.30
2019-05-17T17:29:18.126Z,1.95
2019-05-17T17:31:45.663Z,3.98
2019-05-17T17:34:12.246Z,2.25
2019-05-17T17:36:38.724Z,1.80
2019-05-17T17:39:06.889Z,1.70
2019-05-17T17:41:33.350Z,1.92
2019-05-17T17:44:00.154Z,1.80
2019-05-17T17:46:27.349Z,1.87
2019-05-17T17:48:53.773Z,2.35
2019-05-17T17:51:20.449Z,2.33
2019-05-17T17:53:46.857Z,3.77
2019-05-17T17:56:13.805Z,1.70
2019-05-17T17:58:40.489Z,1.82
2019-05-17T18:01:06.945Z,5.42
2019-05-17T18:03:33.463Z,3.10
2019-05-17T18:06:00.061Z,3.15
2019-05-17T18:08:26.592Z,2.27
2019-05-17T18:10:53.125Z,2.30
2019-05-17T18:13:19.521Z,5.08
2019-05-17T18:15:46.110Z,2.00
2019-05-17T18:18:13.882Z,2.58
2019-05-17T18:20:40.595Z,3.40
2019-05-17T18:23:07.548Z,5.95
2019-05-17T18:25:34.228Z,2.55
2019-05-17T18:28:01.223Z,2.08
2019-05-17T18:30:27.805Z,2.17
2019-05-17T18:32:54.299Z,4.58
2019-05-17T18:35:20.762Z,2.80
2019-05-17T18:37:47.287Z,4.17
2019-05-17T18:40:13.909Z,2.10
2019-05-17T18:42:40.362Z,3.00
2019-05-17T18:45:07.431Z,2.22
2019-05-17T18:47:34.244Z,3.80
2019-05-17T18:50:00.828Z,2.17
2019-05-17T18:52:28.468Z,2.70
2019-05-17T18:54:55.002Z,1.85
2019-05-17T18:57:21.558Z,2.47
2019-05-17T18:59:47.940Z,3.05
2019-05-17T19:02:14.353Z,2.52
2019-05-17T19:04:40.751Z,4.28
2019-05-17T19:07:07.308Z,2.08
2019-05-17T19:09:33.930Z,3.08
2019-05-17T19:12:00.326Z,6.08
2019-05-17T19:14:26.881Z,3.65
2019-05-17T19:16:53.284Z,2.98
2019-05-17T19:19:19.741Z,2.90
2019-05-17T19:21:46.308Z,5.72
2019-05-17T19:24:12.799Z,4.05
2019-05-17T19:26:39.217Z,4.45
2019-05-17T19:29:05.726Z,2.87
2019-05-17T19:31:32.302Z,5.17
2019-05-17T19:33:58.787Z,4.22
2019-05-17T19:36:25.183Z,5.10
2019-05-17T19:38:51.610Z,5.75
2019-05-17T19:41:18.114Z,3.72
2019-05-17T19:43:44.738Z,4.90
2019-05-17T19:46:11.225Z,3.65
2019-05-17T19:48:37.735Z,4.08
2019-05-17T19:51:04.164Z,3.05
2019-05-17T19:53:30.701Z,4.12
2019-05-17T19:55:57.212Z,4.37
2019-05-17T19:58:23.815Z,2.90
2019-05-17T20:00:50.361Z,3.42
2019-05-17T20:03:16.892Z,4.10
2019-05-17T20:05:44.399Z,4.72
2019-05-17T20:08:10.969Z,4.62
2019-05-17T20:10:37.417Z,4.45
2019-05-17T20:13:04.211Z,3.10
2019-05-17T20:15:34.667Z,4.65
2019-05-17T20:17:59.433Z,5.17
2019-05-17T20:20:26.157Z,5.05
2019-05-17T20:22:52.750Z,3.15
2019-05-17T20:25:21.166Z,4.67
2019-05-17T20:27:47.772Z,3.20
2019-05-17T20:30:14.780Z,5.07
2019-05-17T20:32:41.281Z,5.90
2019-05-17T20:35:08.578Z,3.83
2019-05-17T20:37:35.159Z,4.17
2019-05-17T20:40:03.650Z,3.75
2019-05-17T20:42:30.057Z,5.00
2019-05-17T20:44:56.472Z,8.03
2019-05-17T20:47:22.952Z,3.20
2019-05-17T20:49:49.366Z,4.80
2019-05-17T20:52:15.879Z,5.67
2019-05-17T20:54:43.589Z,6.10
2019-05-17T20:57:10.079Z,3.45
2019-05-17T20:59:36.456Z,8.25
2019-05-17T21:02:03.075Z,6.12
2019-05-17T21:04:30.581Z,5.58
2019-05-17T21:06:57.262Z,5.00
2019-05-17T21:09:23.658Z,7.03
2019-05-17T21:11:50.044Z,6.47
2019-05-17T21:14:16.652Z,9.40
2019-05-17T21:16:43.185Z,4.97
2019-05-17T21:19:09.777Z,8.18
2019-05-17T21:21:37.179Z,11.45
2019-05-17T21:24:03.663Z,5.97
2019-05-17T21:26:30.203Z,4.17
2019-05-17T21:28:56.611Z,6.60
2019-05-17T21:31:23.053Z,7.53
2019-05-17T21:33:49.553Z,7.75
2019-05-17T21:36:15.935Z,7.92
2019-05-17T21:38:43.423Z,4.47
2019-05-17T21:41:09.931Z,6.75
2019-05-17T21:43:36.573Z,9.65
2019-05-17T21:46:04.302Z,7.40
2019-05-17T21:48:31.040Z,11.45
2019-05-17T21:50:57.600Z,9.83
2019-05-17T21:53:24.075Z,6.22
2019-05-17T21:55:50.472Z,8.70
2019-05-17T21:58:20.338Z,6.12
2019-05-17T22:00:51.015Z,8.30
2019-05-17T22:03:17.503Z,10.00
2019-05-17T22:05:44.015Z,7.78
2019-05-17T22:08:10.563Z,8.53
2019-05-17T22:10:37.084Z,8.33
2019-05-17T22:13:03.735Z,9.28
2019-05-17T22:15:30.331Z,9.18
2019-05-17T22:17:57.044Z,8.80
2019-05-17T22:20:23.441Z,8.53
2019-05-17T22:22:49.847Z,7.53
2019-05-17T22:25:16.225Z,12.68
2019-05-17T22:27:42.751Z,11.60
2019-05-17T22:30:09.393Z,8.13
2019-05-17T22:32:36.025Z,10.30
2019-05-17T22:35:04.633Z,6.28
2019-05-17T22:37:31.054Z,6.28
2019-05-17T22:39:57.461Z,9.68
2019-05-17T22:42:23.885Z,8.90
2019-05-17T22:44:51.387Z,11.43
2019-05-17T22:47:17.801Z,5.58
2019-05-17T22:49:44.351Z,7.35
2019-05-17T22:52:10.937Z,11.60
2019-05-17T22:54:37.387Z,6.58
2019-05-17T22:57:05.792Z,9.43
2019-05-17T22:59:32.439Z,10.13
2019-05-17T23:01:58.972Z,10.60
2019-05-17T23:04:25.457Z,6.70
2019-05-17T23:06:51.959Z,8.53
2019-05-17T23:09:18.510Z,8.25
2019-05-17T23:11:44.921Z,7.95
2019-05-17T23:14:11.511Z,7.45
2019-05-17T23:16:50.578Z,6.08
2019-05-17T23:19:07.213Z,6.87
2019-05-17T23:21:35.025Z,10.70
2019-05-17T23:24:01.567Z,7.55
2019-05-17T23:26:28.042Z,6.75
2019-05-17T23:28:54.449Z,8.95
2019-05-17T23:31:20.927Z,8.60
2019-05-17T23:33:47.345Z,7.37
2019-05-17T23:36:13.729Z,8.83
2019-05-17T23:38:40.149Z,5.70
2019-05-17T23:41:06.530Z,8.15
2019-05-17T23:43:33.131Z,10.25
2019-05-17T23:45:59.510Z,7.05
2019-05-17T23:48:25.941Z,6.67
2019-05-17T23:50:52.323Z,6.05
2019-05-17T23:53:18.743Z,7.72
2019-05-17T23:55:45.171Z,10.48
2019-05-17T23:58:11.611Z,8.40
